sensor_id;sensor_type;location;lat;lon;timestamp;pressure;altitude;pressure_sealevel;temperature;humidity
32081;BME280;18593;51.426;7.030;2023-05-27T00:01:24;101801.88;;;13.79;51.00
32081;BME280;18593;51.426;7.030;2023-05-27T00:03:51;101811.94;;;13.71;50.86
32081;BME280;18593;51.426;7.030;2023-05-27T00:06:18;101804.69;;;13.64;51.16
32081;BME280;18593;51.426;7.030;2023-05-27T00:08:45;101807.97;;;13.60;51.46
32081;BME280;18593;51.426;7.030;2023-05-27T00:11:14;101807.75;;;13.61;51.44
32081;BME280;18593;51.426;7.030;2023-05-27T00:13:41;101805.28;;;13.60;51.41
32081;BME280;18593;51.426;7.030;2023-05-27T00:16:09;101798.66;;;13.56;51.54
32081;BME280;18593;51.426;7.030;2023-05-27T00:18:37;101805.06;;;13.55;51.50
32081;BME280;18593;51.426;7.030;2023-05-27T00:21:04;101795.56;;;13.52;51.61
32081;BME280;18593;51.426;7.030;2023-05-27T00:23:31;101796.38;;;13.53;51.69
32081;BME280;18593;51.426;7.030;2023-05-27T00:25:59;101799.25;;;13.51;51.77
32081;BME280;18593;51.426;7.030;2023-05-27T00:28:27;101804.38;;;13.46;51.80
32081;BME280;18593;51.426;7.030;2023-05-27T00:30:57;101795.09;;;13.42;51.92
32081;BME280;18593;51.426;7.030;2023-05-27T00:33:24;101798.16;;;13.39;52.16
32081;BME280;18593;51.426;7.030;2023-05-27T00:35:51;101790.50;;;13.36;52.51
32081;BME280;18593;51.426;7.030;2023-05-27T00:38:18;101791.09;;;13.31;52.55
32081;BME280;18593;51.426;7.030;2023-05-27T00:40:46;101798.97;;;13.33;52.28
32081;BME280;18593;51.426;7.030;2023-05-27T00:43:16;101795.00;;;13.29;52.70
32081;BME280;18593;51.426;7.030;2023-05-27T00:45:45;101794.78;;;13.24;52.78
32081;BME280;18593;51.426;7.030;2023-05-27T00:48:12;101794.94;;;13.22;52.74
32081;BME280;18593;51.426;7.030;2023-05-27T00:50:39;101798.47;;;13.23;52.70
32081;BME280;18593;51.426;7.030;2023-05-27T00:53:07;101801.16;;;13.23;53.05
32081;BME280;18593;51.426;7.030;2023-05-27T00:55:34;101798.47;;;13.23;53.00
32081;BME280;18593;51.426;7.030;2023-05-27T00:58:02;101794.28;;;13.20;53.11
32081;BME280;18593;51.426;7.030;2023-05-27T01:00:30;101798.38;;;13.16;53.03
32081;BME280;18593;51.426;7.030;2023-05-27T01:02:59;101805.81;;;13.14;53.35
32081;BME280;18593;51.426;7.030;2023-05-27T01:05:26;101785.97;;;13.08;53.39
32081;BME280;18593;51.426;7.030;2023-05-27T01:08:12;101792.16;;;13.09;53.20
32081;BME280;18593;51.426;7.030;2023-05-27T01:10:47;101795.88;;;13.08;53.46
32081;BME280;18593;51.426;7.030;2023-05-27T01:13:20;101791.09;;;13.03;53.45
32081;BME280;18593;51.426;7.030;2023-05-27T01:15:53;101794.41;;;13.05;53.47
32081;BME280;18593;51.426;7.030;2023-05-27T01:18:26;101788.59;;;13.02;53.58
32081;BME280;18593;51.426;7.030;2023-05-27T01:21:05;101786.69;;;12.96;53.91
32081;BME280;18593;51.426;7.030;2023-05-27T01:23:34;101786.91;;;12.94;53.71
32081;BME280;18593;51.426;7.030;2023-05-27T01:26:04;101794.13;;;12.94;54.08
32081;BME280;18593;51.426;7.030;2023-05-27T01:28:32;101789.50;;;12.87;54.03
32081;BME280;18593;51.426;7.030;2023-05-27T01:31:17;101783.34;;;12.87;53.89
32081;BME280;18593;51.426;7.030;2023-05-27T01:33:54;101785.38;;;12.85;54.10
32081;BME280;18593;51.426;7.030;2023-05-27T01:36:28;101786.59;;;12.82;54.16
32081;BME280;18593;51.426;7.030;2023-05-27T01:39:00;101782.47;;;12.80;54.24
32081;BME280;18593;51.426;7.030;2023-05-27T01:41:28;101783.28;;;12.80;54.24
32081;BME280;18593;51.426;7.030;2023-05-27T01:43:58;101783.50;;;12.79;54.13
32081;BME280;18593;51.426;7.030;2023-05-27T01:46:26;101778.50;;;12.76;54.29
32081;BME280;18593;51.426;7.030;2023-05-27T01:48:53;101777.03;;;12.73;54.57
32081;BME280;18593;51.426;7.030;2023-05-27T01:51:20;101779.91;;;12.72;54.42
32081;BME280;18593;51.426;7.030;2023-05-27T01:53:48;101774.94;;;12.69;54.59
32081;BME280;18593;51.426;7.030;2023-05-27T01:56:16;101778.84;;;12.66;54.57
32081;BME280;18593;51.426;7.030;2023-05-27T01:58:43;101779.88;;;12.65;54.58
32081;BME280;18593;51.426;7.030;2023-05-27T02:01:11;101784.19;;;12.66;54.56
32081;BME280;18593;51.426;7.030;2023-05-27T02:03:38;101779.03;;;12.65;54.59
32081;BME280;18593;51.426;7.030;2023-05-27T02:06:06;101770.34;;;12.62;54.68
32081;BME280;18593;51.426;7.030;2023-05-27T02:08:33;101771.59;;;12.60;54.58
32081;BME280;18593;51.426;7.030;2023-05-27T02:11:01;101776.28;;;12.58;54.76
32081;BME280;18593;51.426;7.030;2023-05-27T02:13:31;101768.00;;;12.53;54.86
32081;BME280;18593;51.426;7.030;2023-05-27T02:15:58;101769.25;;;12.50;54.83
32081;BME280;18593;51.426;7.030;2023-05-27T02:18:25;101778.09;;;12.51;54.68
32081;BME280;18593;51.426;7.030;2023-05-27T02:20:53;101779.13;;;12.50;54.77
32081;BME280;18593;51.426;7.030;2023-05-27T02:23:20;101781.78;;;12.50;54.95
32081;BME280;18593;51.426;7.030;2023-05-27T02:25:47;101780.97;;;12.49;54.88
32081;BME280;18593;51.426;7.030;2023-05-27T02:28:15;101769.16;;;12.44;55.13
32081;BME280;18593;51.426;7.030;2023-05-27T02:30:44;101766.88;;;12.41;54.98
32081;BME280;18593;51.426;7.030;2023-05-27T02:33:11;101766.06;;;12.40;55.14
32081;BME280;18593;51.426;7.030;2023-05-27T02:35:38;101768.72;;;12.40;55.14
32081;BME280;18593;51.426;7.030;2023-05-27T02:38:05;101771.56;;;12.38;55.00
32081;BME280;18593;51.426;7.030;2023-05-27T02:40:33;101771.97;;;12.35;55.19
32081;BME280;18593;51.426;7.030;2023-05-27T02:43:00;101776.66;;;12.33;55.22
32081;BME280;18593;51.426;7.030;2023-05-27T02:45:27;101775.03;;;12.32;55.26
32081;BME280;18593;51.426;7.030;2023-05-27T02:47:56;101767.81;;;12.33;55.23
32081;BME280;18593;51.426;7.030;2023-05-27T02:50:25;101771.31;;;12.33;55.21
32081;BME280;18593;51.426;7.030;2023-05-27T02:52:53;101763.50;;;12.32;55.21
32081;BME280;18593;51.426;7.030;2023-05-27T02:55:20;101763.69;;;12.30;55.41
32081;BME280;18593;51.426;7.030;2023-05-27T02:57:48;101750.91;;;12.26;55.53
32081;BME280;18593;51.426;7.030;2023-05-27T03:00:16;101756.41;;;12.24;55.48
32081;BME280;18593;51.426;7.030;2023-05-27T03:02:44;101759.47;;;12.21;55.62
32081;BME280;18593;51.426;7.030;2023-05-27T03:05:13;101757.19;;;12.18;55.75
32081;BME280;18593;51.426;7.030;2023-05-27T03:07:41;101747.50;;;12.17;55.79
32081;BME280;18593;51.426;7.030;2023-05-27T03:10:09;101757.19;;;12.18;55.82
32081;BME280;18593;51.426;7.030;2023-05-27T03:12:36;101752.22;;;12.15;55.75
32081;BME280;18593;51.426;7.030;2023-05-27T03:15:05;101756.72;;;12.15;55.80
32081;BME280;18593;51.426;7.030;2023-05-27T03:17:35;101760.41;;;12.14;55.83
32081;BME280;18593;51.426;7.030;2023-05-27T03:20:03;101748.91;;;12.13;55.89
32081;BME280;18593;51.426;7.030;2023-05-27T03:22:34;101742.09;;;12.10;55.99
32081;BME280;18593;51.426;7.030;2023-05-27T03:25:03;101743.91;;;12.10;55.87
32081;BME280;18593;51.426;7.030;2023-05-27T03:27:30;101745.75;;;12.09;55.96
32081;BME280;18593;51.426;7.030;2023-05-27T03:29:58;101738.97;;;12.07;56.10
32081;BME280;18593;51.426;7.030;2023-05-27T03:32:26;101747.00;;;12.07;56.02
32081;BME280;18593;51.426;7.030;2023-05-27T03:34:53;101740.00;;;12.06;55.87
32081;BME280;18593;51.426;7.030;2023-05-27T03:37:20;101735.63;;;12.05;56.10
32081;BME280;18593;51.426;7.030;2023-05-27T03:40:03;101740.97;;;12.05;56.13
32081;BME280;18593;51.426;7.030;2023-05-27T03:42:31;101742.00;;;12.04;56.25
32081;BME280;18593;51.426;7.030;2023-05-27T03:44:59;101743.84;;;12.03;56.20
32081;BME280;18593;51.426;7.030;2023-05-27T03:47:27;101738.50;;;12.03;56.22
32081;BME280;18593;51.426;7.030;2023-05-27T03:49:55;101736.03;;;12.02;56.37
32081;BME280;18593;51.426;7.030;2023-05-27T03:52:22;101738.06;;;12.00;56.46
32081;BME280;18593;51.426;7.030;2023-05-27T03:54:49;101734.38;;;12.01;56.40
32081;BME280;18593;51.426;7.030;2023-05-27T03:57:18;101742.56;;;11.99;56.60
32081;BME280;18593;51.426;7.030;2023-05-27T03:59:45;101732.06;;;11.98;56.71
32081;BME280;18593;51.426;7.030;2023-05-27T04:02:12;101740.09;;;11.98;56.79
32081;BME280;18593;51.426;7.030;2023-05-27T04:04:39;101742.16;;;11.96;56.84
32081;BME280;18593;51.426;7.030;2023-05-27T04:07:06;101743.13;;;11.95;57.04
32081;BME280;18593;51.426;7.030;2023-05-27T04:09:34;101738.81;;;11.94;56.93
32081;BME280;18593;51.426;7.030;2023-05-27T04:12:01;101742.16;;;11.96;56.83
32081;BME280;18593;51.426;7.030;2023-05-27T04:14:29;101738.44;;;11.97;57.08
32081;BME280;18593;51.426;7.030;2023-05-27T04:16:57;101743.81;;;11.97;57.06
32081;BME280;18593;51.426;7.030;2023-05-27T04:19:24;101738.44;;;11.97;57.01
32081;BME280;18593;51.426;7.030;2023-05-27T04:21:51;101742.97;;;11.96;57.14
32081;BME280;18593;51.426;7.030;2023-05-27T04:24:19;101732.91;;;11.98;57.22
32081;BME280;18593;51.426;7.030;2023-05-27T04:26:47;101719.53;;;11.98;57.27
32081;BME280;18593;51.426;7.030;2023-05-27T04:29:16;101734.38;;;12.01;57.25
32081;BME280;18593;51.426;7.030;2023-05-27T04:31:46;101730.03;;;12.00;57.51
32081;BME280;18593;51.426;7.030;2023-05-27T04:34:17;101740.56;;;12.01;57.33
32081;BME280;18593;51.426;7.030;2023-05-27T04:36:45;101730.50;;;12.03;57.50
32081;BME280;18593;51.426;7.030;2023-05-27T04:39:17;101739.16;;;12.05;57.61
32081;BME280;18593;51.426;7.030;2023-05-27T04:41:46;101736.34;;;12.14;57.56
32081;BME280;18593;51.426;7.030;2023-05-27T04:44:16;101735.41;;;12.21;57.69
32081;BME280;18593;51.426;7.030;2023-05-27T04:46:47;101735.91;;;12.31;57.61
32081;BME280;18593;51.426;7.030;2023-05-27T04:49:14;101744.44;;;12.42;57.53
32081;BME280;18593;51.426;7.030;2023-05-27T04:51:42;101736.09;;;12.51;57.41
32081;BME280;18593;51.426;7.030;2023-05-27T04:54:12;101741.75;;;12.63;57.40
32081;BME280;18593;51.426;7.030;2023-05-27T04:56:39;101743.09;;;12.74;57.11
32081;BME280;18593;51.426;7.030;2023-05-27T04:59:11;101748.94;;;12.84;56.92
32081;BME280;18593;51.426;7.030;2023-05-27T05:01:43;101746.91;;;12.93;56.59
32081;BME280;18593;51.426;7.030;2023-05-27T05:04:33;101739.34;;;13.03;56.17
32081;BME280;18593;51.426;7.030;2023-05-27T05:07:02;101745.84;;;13.15;56.14
32081;BME280;18593;51.426;7.030;2023-05-27T05:09:32;101730.25;;;13.25;55.89
32081;BME280;18593;51.426;7.030;2023-05-27T05:12:06;101732.38;;;13.36;55.77
32081;BME280;18593;51.426;7.030;2023-05-27T05:14:38;101721.94;;;13.48;55.37
32081;BME280;18593;51.426;7.030;2023-05-27T05:17:05;101717.03;;;13.58;55.35
32081;BME280;18593;51.426;7.030;2023-05-27T05:19:34;101719.53;;;13.67;54.72
32081;BME280;18593;51.426;7.030;2023-05-27T05:22:01;101723.69;;;13.76;54.33
32081;BME280;18593;51.426;7.030;2023-05-27T05:24:30;101718.34;;;13.82;54.28
32081;BME280;18593;51.426;7.030;2023-05-27T05:26:57;101725.59;;;13.88;54.00
32081;BME280;18593;51.426;7.030;2023-05-27T05:29:25;101720.88;;;13.97;54.03
32081;BME280;18593;51.426;7.030;2023-05-27T05:31:52;101719.00;;;14.04;54.20
32081;BME280;18593;51.426;7.030;2023-05-27T05:34:21;101716.75;;;14.08;53.69
32081;BME280;18593;51.426;7.030;2023-05-27T05:36:51;101714.72;;;14.16;53.69
32081;BME280;18593;51.426;7.030;2023-05-27T05:39:19;101721.31;;;14.27;53.82
32081;BME280;18593;51.426;7.030;2023-05-27T05:41:50;101708.72;;;14.34;53.46
32081;BME280;18593;51.426;7.030;2023-05-27T05:44:18;101719.47;;;14.41;52.92
32081;BME280;18593;51.426;7.030;2023-05-27T05:46:48;101715.78;;;14.49;52.81
32081;BME280;18593;51.426;7.030;2023-05-27T05:49:17;101716.84;;;14.54;52.67
32081;BME280;18593;51.426;7.030;2023-05-27T05:51:45;101716.00;;;14.60;52.47
32081;BME280;18593;51.426;7.030;2023-05-27T05:54:14;101709.81;;;14.66;52.28
32081;BME280;18593;51.426;7.030;2023-05-27T05:56:44;101705.06;;;14.75;52.46
32081;BME280;18593;51.426;7.030;2023-05-27T05:59:12;101697.78;;;14.82;52.32
32081;BME280;18593;51.426;7.030;2023-05-27T06:01:39;101703.19;;;14.89;51.91
32081;BME280;18593;51.426;7.030;2023-05-27T06:04:06;101689.72;;;14.96;51.83
32081;BME280;18593;51.426;7.030;2023-05-27T06:06:38;101693.44;;;15.01;51.63
32081;BME280;18593;51.426;7.030;2023-05-27T06:09:29;101695.91;;;15.09;51.83
32081;BME280;18593;51.426;7.030;2023-05-27T06:12:00;101707.66;;;15.15;51.60
32081;BME280;18593;51.426;7.030;2023-05-27T06:14:34;101709.72;;;15.19;50.79
32081;BME280;18593;51.426;7.030;2023-05-27T06:17:01;101710.72;;;15.25;51.11
32081;BME280;18593;51.426;7.030;2023-05-27T06:19:29;101717.53;;;15.34;51.55
32081;BME280;18593;51.426;7.030;2023-05-27T06:21:57;101714.19;;;15.39;50.67
32081;BME280;18593;51.426;7.030;2023-05-27T06:25:00;101701.94;;;15.50;50.80
32081;BME280;18593;51.426;7.030;2023-05-27T06:27:46;101695.53;;;15.57;51.18
32081;BME280;18593;51.426;7.030;2023-05-27T06:30:14;101692.19;;;15.62;51.03
32081;BME280;18593;51.426;7.030;2023-05-27T06:32:44;101688.22;;;15.71;51.23
32081;BME280;18593;51.426;7.030;2023-05-27T06:35:12;101694.81;;;15.82;51.13
32081;BME280;18593;51.426;7.030;2023-05-27T06:37:39;101692.94;;;15.82;49.95
32081;BME280;18593;51.426;7.030;2023-05-27T06:40:12;101701.19;;;15.87;51.15
32081;BME280;18593;51.426;7.030;2023-05-27T06:42:39;101691.81;;;15.96;49.98
32081;BME280;18593;51.426;7.030;2023-05-27T06:45:39;101697.38;;;16.02;49.93
32081;BME280;18593;51.426;7.030;2023-05-27T06:48:26;101689.84;;;16.10;48.96
32081;BME280;18593;51.426;7.030;2023-05-27T06:50:53;101687.53;;;16.14;49.22
32081;BME280;18593;51.426;7.030;2023-05-27T06:53:21;101689.97;;;16.22;48.99
32081;BME280;18593;51.426;7.030;2023-05-27T06:55:56;101683.94;;;16.27;49.50
32081;BME280;18593;51.426;7.030;2023-05-27T06:58:52;101680.13;;;16.34;49.91
32081;BME280;18593;51.426;7.030;2023-05-27T07:01:21;101684.19;;;16.43;50.26
32081;BME280;18593;51.426;7.030;2023-05-27T07:03:54;101681.31;;;16.45;49.06
32081;BME280;18593;51.426;7.030;2023-05-27T07:06:33;101677.09;;;16.49;48.72
32081;BME280;18593;51.426;7.030;2023-05-27T07:09:03;101671.28;;;16.52;48.78
32081;BME280;18593;51.426;7.030;2023-05-27T07:11:35;101674.97;;;16.58;48.70
32081;BME280;18593;51.426;7.030;2023-05-27T07:14:06;101663.75;;;16.61;48.22
32081;BME280;18593;51.426;7.030;2023-05-27T07:16:36;101663.69;;;16.67;48.27
32081;BME280;18593;51.426;7.030;2023-05-27T07:19:05;101661.56;;;16.76;48.90
32081;BME280;18593;51.426;7.030;2023-05-27T07:21:40;101656.91;;;16.83;48.88
32081;BME280;18593;51.426;7.030;2023-05-27T07:24:13;101660.16;;;16.92;48.73
32081;BME280;18593;51.426;7.030;2023-05-27T07:26:42;101657.06;;;16.88;47.12
32081;BME280;18593;51.426;7.030;2023-05-27T07:29:09;101652.53;;;16.89;47.79
32081;BME280;18593;51.426;7.030;2023-05-27T07:31:57;101650.81;;;16.94;47.96
32081;BME280;18593;51.426;7.030;2023-05-27T07:34:28;101647.44;;;16.99;47.51
32081;BME280;18593;51.426;7.030;2023-05-27T07:36:56;101652.31;;;17.09;48.08
32081;BME280;18593;51.426;7.030;2023-05-27T07:39:23;101643.31;;;17.15;48.42
32081;BME280;18593;51.426;7.030;2023-05-27T07:41:52;101642.00;;;17.17;47.13
32081;BME280;18593;51.426;7.030;2023-05-27T07:44:19;101640.06;;;17.24;48.06
32081;BME280;18593;51.426;7.030;2023-05-27T07:46:47;101628.38;;;17.31;47.37
32081;BME280;18593;51.426;7.030;2023-05-27T07:49:14;101634.53;;;17.38;47.12
32081;BME280;18593;51.426;7.030;2023-05-27T07:52:00;101632.66;;;17.38;46.83
32081;BME280;18593;51.426;7.030;2023-05-27T07:54:27;101639.09;;;17.37;46.93
32081;BME280;18593;51.426;7.030;2023-05-27T07:56:56;101641.09;;;17.42;47.11
32081;BME280;18593;51.426;7.030;2023-05-27T07:59:24;101640.53;;;17.51;48.32
32081;BME280;18593;51.426;7.030;2023-05-27T08:01:52;101642.78;;;17.55;47.48
32081;BME280;18593;51.426;7.030;2023-05-27T08:04:19;101632.13;;;17.60;48.13
32081;BME280;18593;51.426;7.030;2023-05-27T08:06:59;101633.91;;;17.66;47.00
32081;BME280;18593;51.426;7.030;2023-05-27T08:09:31;101620.53;;;17.71;46.36
32081;BME280;18593;51.426;7.030;2023-05-27T08:12:20;101620.50;;;17.78;47.10
32081;BME280;18593;51.426;7.030;2023-05-27T08:15:08;101617.13;;;17.82;46.60
32081;BME280;18593;51.426;7.030;2023-05-27T08:17:41;101614.06;;;17.90;48.82
32081;BME280;18593;51.426;7.030;2023-05-27T08:20:25;101604.81;;;17.98;48.53
32081;BME280;18593;51.426;7.030;2023-05-27T08:23:07;101598.03;;;18.07;47.26
32081;BME280;18593;51.426;7.030;2023-05-27T08:25:52;101593.81;;;18.11;47.33
32081;BME280;18593;51.426;7.030;2023-05-27T08:28:33;101596.38;;;18.18;46.01
32081;BME280;18593;51.426;7.030;2023-05-27T08:31:21;101594.25;;;18.20;46.43
32081;BME280;18593;51.426;7.030;2023-05-27T08:33:53;101591.91;;;18.23;45.26
32081;BME280;18593;51.426;7.030;2023-05-27T08:36:21;101591.47;;;18.26;45.12
32081;BME280;18593;51.426;7.030;2023-05-27T08:38:51;101588.50;;;18.28;45.28
32081;BME280;18593;51.426;7.030;2023-05-27T08:41:21;101579.72;;;18.33;46.57
32081;BME280;18593;51.426;7.030;2023-05-27T08:43:50;101592.75;;;18.36;45.34
32081;BME280;18593;51.426;7.030;2023-05-27T08:46:18;101586.75;;;18.34;44.72
32081;BME280;18593;51.426;7.030;2023-05-27T08:48:46;101579.25;;;18.36;45.61
32081;BME280;18593;51.426;7.030;2023-05-27T08:51:17;101574.41;;;18.38;45.24
32081;BME280;18593;51.426;7.030;2023-05-27T08:53:46;101571.84;;;18.43;45.84
32081;BME280;18593;51.426;7.030;2023-05-27T08:56:15;101566.78;;;18.46;46.51
32081;BME280;18593;51.426;7.030;2023-05-27T08:58:48;101567.84;;;18.45;45.85
32081;BME280;18593;51.426;7.030;2023-05-27T09:01:18;101555.16;;;18.46;45.49
32081;BME280;18593;51.426;7.030;2023-05-27T09:03:46;101559.84;;;18.50;45.46
32081;BME280;18593;51.426;7.030;2023-05-27T09:06:14;101565.00;;;18.52;45.64
32081;BME280;18593;51.426;7.030;2023-05-27T09:08:41;101556.44;;;18.55;45.78
32081;BME280;18593;51.426;7.030;2023-05-27T09:11:16;101551.16;;;18.60;45.62
32081;BME280;18593;51.426;7.030;2023-05-27T09:13:46;101547.63;;;18.60;44.67
32081;BME280;18593;51.426;7.030;2023-05-27T09:16:19;101542.34;;;18.53;44.51
32081;BME280;18593;51.426;7.030;2023-05-27T09:18:46;101540.69;;;18.52;45.10
32081;BME280;18593;51.426;7.030;2023-05-27T09:21:14;101539.41;;;18.55;45.62
32081;BME280;18593;51.426;7.030;2023-05-27T09:23:41;101534.47;;;18.51;44.78
32081;BME280;18593;51.426;7.030;2023-05-27T09:26:09;101543.75;;;18.56;45.39
32081;BME280;18593;51.426;7.030;2023-05-27T09:28:38;101539.41;;;18.55;43.81
32081;BME280;18593;51.426;7.030;2023-05-27T09:31:08;101536.13;;;18.52;43.97
32081;BME280;18593;51.426;7.030;2023-05-27T09:33:39;101537.19;;;18.51;43.30
32081;BME280;18593;51.426;7.030;2023-05-27T09:36:08;101516.63;;;18.50;43.16
32081;BME280;18593;51.426;7.030;2023-05-27T09:38:36;101531.53;;;18.53;43.78
32081;BME280;18593;51.426;7.030;2023-05-27T09:41:03;101527.66;;;18.61;44.32
32081;BME280;18593;51.426;7.030;2023-05-27T09:43:31;101518.72;;;18.60;43.41
32081;BME280;18593;51.426;7.030;2023-05-27T09:46:01;101523.31;;;18.60;44.02
32081;BME280;18593;51.426;7.030;2023-05-27T09:48:30;101510.63;;;18.60;43.95
32081;BME280;18593;51.426;7.030;2023-05-27T09:50:59;101514.72;;;18.63;44.61
32081;BME280;18593;51.426;7.030;2023-05-27T09:53:28;101515.53;;;18.63;42.39
32081;BME280;18593;51.426;7.030;2023-05-27T09:55:57;101513.53;;;18.59;42.97
32081;BME280;18593;51.426;7.030;2023-05-27T09:58:25;101500.28;;;18.57;42.34
32081;BME280;18593;51.426;7.030;2023-05-27T10:00:53;101504.88;;;18.57;43.38
32081;BME280;18593;51.426;7.030;2023-05-27T10:03:23;101502.25;;;18.62;44.21
32081;BME280;18593;51.426;7.030;2023-05-27T10:05:51;101510.03;;;18.70;44.37
32081;BME280;18593;51.426;7.030;2023-05-27T10:08:20;101502.50;;;18.72;44.05
32081;BME280;18593;51.426;7.030;2023-05-27T10:10:47;101496.03;;;18.73;42.14
32081;BME280;18593;51.426;7.030;2023-05-27T10:13:16;101492.50;;;18.72;42.34
32081;BME280;18593;51.426;7.030;2023-05-27T10:15:47;101495.19;;;18.72;40.69
32081;BME280;18593;51.426;7.030;2023-05-27T10:18:23;101493.31;;;18.73;40.77
32081;BME280;18593;51.426;7.030;2023-05-27T10:20:51;101482.50;;;18.73;41.78
32081;BME280;18593;51.426;7.030;2023-05-27T10:23:24;101484.19;;;18.74;41.34
32081;BME280;18593;51.426;7.030;2023-05-27T10:25:54;101482.50;;;18.73;41.00
32081;BME280;18593;51.426;7.030;2023-05-27T10:28:27;101499.66;;;18.78;41.77
32081;BME280;18593;51.426;7.030;2023-05-27T10:31:04;101488.84;;;18.78;40.30
32081;BME280;18593;51.426;7.030;2023-05-27T10:33:35;101476.38;;;18.77;41.34
32081;BME280;18593;51.426;7.030;2023-05-27T10:36:09;101473.69;;;18.77;40.67
32081;BME280;18593;51.426;7.030;2023-05-27T10:38:40;101473.69;;;18.77;41.34
32081;BME280;18593;51.426;7.030;2023-05-27T10:41:08;101472.88;;;18.77;39.71
32081;BME280;18593;51.426;7.030;2023-05-27T10:43:35;101466.28;;;18.73;40.88
32081;BME280;18593;51.426;7.030;2023-05-27T10:46:06;101459.84;;;18.74;40.41
32081;BME280;18593;51.426;7.030;2023-05-27T10:48:34;101460.16;;;18.77;41.20
32081;BME280;18593;51.426;7.030;2023-05-27T10:51:01;101456.19;;;18.80;39.94
32081;BME280;18593;51.426;7.030;2023-05-27T10:53:29;101452.75;;;18.85;40.91
32081;BME280;18593;51.426;7.030;2023-05-27T10:56:00;101463.66;;;18.90;42.42
32081;BME280;18593;51.426;7.030;2023-05-27T10:58:28;101457.19;;;18.91;42.08
32081;BME280;18593;51.426;7.030;2023-05-27T11:00:56;101445.91;;;18.94;42.08
32081;BME280;18593;51.426;7.030;2023-05-27T11:03:25;101441.88;;;18.96;42.02
32081;BME280;18593;51.426;7.030;2023-05-27T11:06:00;101436.22;;;18.98;41.30
32081;BME280;18593;51.426;7.030;2023-05-27T11:08:29;101438.69;;;18.99;40.53
32081;BME280;18593;51.426;7.030;2023-05-27T11:11:02;101441.22;;;19.06;40.79
32081;BME280;18593;51.426;7.030;2023-05-27T11:13:31;101440.16;;;19.07;39.71
32081;BME280;18593;51.426;7.030;2023-05-27T11:16:00;101438.06;;;19.09;40.10
32081;BME280;18593;51.426;7.030;2023-05-27T11:18:38;101429.94;;;19.09;38.59
32081;BME280;18593;51.426;7.030;2023-05-27T11:21:06;101426.41;;;19.09;40.71
32081;BME280;18593;51.426;7.030;2023-05-27T11:23:35;101428.63;;;19.12;39.29
32081;BME280;18593;51.426;7.030;2023-05-27T11:26:10;101413.78;;;19.14;40.67
32081;BME280;18593;51.426;7.030;2023-05-27T11:28:37;101415.19;;;19.17;39.61
32081;BME280;18593;51.426;7.030;2023-05-27T11:31:04;101403.28;;;19.18;39.85
32081;BME280;18593;51.426;7.030;2023-05-27T11:33:32;101403.28;;;19.18;40.07
32081;BME280;18593;51.426;7.030;2023-05-27T11:36:07;101399.53;;;19.19;39.05
32081;BME280;18593;51.426;7.030;2023-05-27T11:38:52;101393.06;;;19.20;39.45
32081;BME280;18593;51.426;7.030;2023-05-27T11:41:23;101389.03;;;19.22;38.89
32081;BME280;18593;51.426;7.030;2023-05-27T11:43:56;101388.00;;;19.23;39.18
32081;BME280;18593;51.426;7.030;2023-05-27T11:46:33;101385.03;;;19.25;39.72
32081;BME280;18593;51.426;7.030;2023-05-27T11:49:00;101386.41;;;19.27;39.98
32081;BME280;18593;51.426;7.030;2023-05-27T11:51:29;101379.13;;;19.28;39.53
32081;BME280;18593;51.426;7.030;2023-05-27T11:53:58;101381.09;;;19.33;39.78
32081;BME280;18593;51.426;7.030;2023-05-27T11:56:28;101388.16;;;19.34;40.48
32081;BME280;18593;51.426;7.030;2023-05-27T11:58:56;101378.41;;;19.33;39.83
32081;BME280;18593;51.426;7.030;2023-05-27T12:01:23;101369.22;;;19.34;39.96
32081;BME280;18593;51.426;7.030;2023-05-27T12:03:51;101362.97;;;19.33;38.74
32081;BME280;18593;51.426;7.030;2023-05-27T12:06:18;101378.63;;;19.31;38.74
32081;BME280;18593;51.426;7.030;2023-05-27T12:08:45;101361.84;;;19.29;39.02
32081;BME280;18593;51.426;7.030;2023-05-27T12:11:12;101361.25;;;19.27;40.30
32081;BME280;18593;51.426;7.030;2023-05-27T12:13:41;101352.31;;;19.26;40.06
32081;BME280;18593;51.426;7.030;2023-05-27T12:16:09;101352.09;;;19.28;39.70
32081;BME280;18593;51.426;7.030;2023-05-27T12:18:37;101342.91;;;19.29;39.38
32081;BME280;18593;51.426;7.030;2023-05-27T12:21:04;101348.31;;;19.29;39.00
32081;BME280;18593;51.426;7.030;2023-05-27T12:23:32;101335.84;;;19.28;37.61
32081;BME280;18593;51.426;7.030;2023-05-27T12:25:59;101339.13;;;19.30;38.33
32081;BME280;18593;51.426;7.030;2023-05-27T12:28:27;101321.81;;;19.31;37.76
32081;BME280;18593;51.426;7.030;2023-05-27T12:30:55;101324.59;;;19.36;39.54
32081;BME280;18593;51.426;7.030;2023-05-27T12:33:23;101329.53;;;19.39;38.88
32081;BME280;18593;51.426;7.030;2023-05-27T12:35:51;101314.91;;;19.40;39.25
32081;BME280;18593;51.426;7.030;2023-05-27T12:38:18;101317.63;;;19.40;39.06
32081;BME280;18593;51.426;7.030;2023-05-27T12:40:46;101313.03;;;19.41;38.78
32081;BME280;18593;51.426;7.030;2023-05-27T12:43:14;101306.31;;;19.43;39.02
32081;BME280;18593;51.426;7.030;2023-05-27T12:45:41;101306.53;;;19.42;38.72
32081;BME280;18593;51.426;7.030;2023-05-27T12:48:10;101303.63;;;19.43;39.61
32081;BME280;18593;51.426;7.030;2023-05-27T12:50:37;101305.78;;;19.46;39.74
32081;BME280;18593;51.426;7.030;2023-05-27T12:53:05;101309.31;;;19.47;39.25
32081;BME280;18593;51.426;7.030;2023-05-27T12:55:33;101302.53;;;19.44;38.88
32081;BME280;18593;51.426;7.030;2023-05-27T12:58:00;101294.69;;;19.43;38.47
32081;BME280;18593;51.426;7.030;2023-05-27T13:00:27;101302.53;;;19.44;39.44
32081;BME280;18593;51.426;7.030;2023-05-27T13:02:55;101287.13;;;19.45;38.81
32081;BME280;18593;51.426;7.030;2023-05-27T13:05:23;101285.22;;;19.45;38.54